createdAt,value
2022-12-03T00:01:02.120Z,102236.69
2022-12-03T00:03:30.704Z,102230.38
2022-12-03T00:06:00.694Z,102226.78
2022-12-03T00:08:29.179Z,102229.78
2022-12-03T00:10:57.700Z,102231.00
2022-12-03T00:13:26.226Z,102225.88
2022-12-03T00:15:54.790Z,102234.91
2022-12-03T00:18:23.576Z,102223.91
2022-12-03T00:20:52.047Z,102213.56
2022-12-03T00:23:21.914Z,102221.84
2022-12-03T00:25:50.730Z,102218.97
2022-12-03T00:28:19.199Z,102224.38
2022-12-03T00:30:47.696Z,102224.50
2022-12-03T00:33:16.215Z,102226.19
2022-12-03T00:35:44.690Z,102220.31
2022-12-03T00:38:13.344Z,102227.38
2022-12-03T00:40:43.303Z,102230.69
2022-12-03T00:43:11.791Z,102218.06
2022-12-03T00:45:40.382Z,102212.22
2022-12-03T00:48:08.903Z,102214.16
2022-12-03T00:50:37.483Z,102220.16
2022-12-03T00:53:05.951Z,102212.50
2022-12-03T00:55:34.426Z,102209.94
2022-12-03T00:58:04.318Z,102218.97
2022-12-03T01:00:32.798Z,102212.81
2022-12-03T01:03:01.674Z,102211.75
2022-12-03T01:05:30.171Z,102215.06
2022-12-03T01:07:58.689Z,102216.59
2022-12-03T01:10:27.422Z,102215.97
2022-12-03T01:12:55.948Z,102215.38
2022-12-03T01:15:25.906Z,102215.38
2022-12-03T01:17:55.099Z,102221.09
2022-12-03T01:20:23.607Z,102221.97
2022-12-03T01:22:52.135Z,102223.78
2022-12-03T01:25:20.652Z,102221.06
2022-12-03T01:27:49.228Z,102219.25
2022-12-03T01:30:17.795Z,102222.56
2022-12-03T01:32:46.637Z,102217.47
2022-12-03T01:35:15.242Z,102215.66
2022-12-03T01:37:43.710Z,102224.84
2022-12-03T01:40:16.949Z,102206.66
2022-12-03T01:42:45.566Z,102218.97
2022-12-03T01:45:22.716Z,102216.56
2022-12-03T01:47:52.799Z,102221.06
2022-12-03T01:50:28.032Z,102206.34
2022-12-03T01:52:59.554Z,102205.31
2022-12-03T01:55:28.309Z,102217.19
2022-12-03T01:58:00.069Z,102200.34
2022-12-03T02:00:29.786Z,102210.56
2022-12-03T02:03:02.417Z,102205.91
2022-12-03T02:05:32.793Z,102201.56
2022-12-03T02:08:02.037Z,102205.31
2022-12-03T02:10:34.951Z,102206.34
2022-12-03T02:13:06.298Z,102210.41
2022-12-03T02:15:35.599Z,102205.16
2022-12-03T02:18:05.772Z,102198.56
2022-12-03T02:20:40.454Z,102197.47
2022-12-03T02:23:14.746Z,102200.34
2022-12-03T02:25:44.784Z,102205.63
2022-12-03T02:28:13.324Z,102205.72
2022-12-03T02:30:41.802Z,102210.84
2022-12-03T02:33:10.329Z,102209.34
2022-12-03T02:35:40.206Z,102203.50
2022-12-03T02:38:13.967Z,102196.44
2022-12-03T02:40:45.262Z,102202.72
2022-12-03T02:43:16.688Z,102210.13
2022-12-03T02:45:48.687Z,102202.91
2022-12-03T02:48:20.900Z,102200.19
2022-12-03T02:50:52.759Z,102206.50
2022-12-03T02:53:25.030Z,102203.50
2022-12-03T02:55:57.042Z,102197.97
2022-12-03T02:58:27.344Z,102201.13
2022-12-03T03:00:56.727Z,102204.56
2022-12-03T03:03:28.514Z,102206.06
2022-12-03T03:05:57.866Z,102198.09
2022-12-03T03:08:27.023Z,102206.06
2022-12-03T03:10:57.916Z,102200.03
2022-12-03T03:13:26.754Z,102197.97
2022-12-03T03:15:55.424Z,102199.75
2022-12-03T03:18:24.222Z,102197.97
2022-12-03T03:20:52.776Z,102197.97
2022-12-03T03:23:23.105Z,102191.50
2022-12-03T03:25:58.091Z,102193.13
2022-12-03T03:28:27.568Z,102184.44
2022-12-03T03:30:56.780Z,102185.47
2022-12-03T03:33:25.825Z,102184.72
2022-12-03T03:35:54.919Z,102186.81
2022-12-03T03:38:24.979Z,102179.91
2022-12-03T03:40:54.658Z,102182.63
2022-12-03T03:43:26.240Z,102186.53
2022-12-03T03:45:55.665Z,102184.25
2022-12-03T03:48:24.348Z,102171.81
2022-12-03T03:50:53.428Z,102176.91
2022-12-03T03:53:23.102Z,102176.91
2022-12-03T03:55:52.388Z,102164.25
2022-12-03T03:58:21.034Z,102168.16
2022-12-03T04:00:51.018Z,102164.72
2022-12-03T04:03:19.569Z,102157.06
2022-12-03T04:05:51.036Z,102160.06
2022-12-03T04:08:19.618Z,102160.81
2022-12-03T04:11:05.608Z,102149.53
2022-12-03T04:13:34.143Z,102148.34
2022-12-03T04:16:04.084Z,102158.56
2022-12-03T04:18:46.474Z,102155.59
2022-12-03T04:21:34.723Z,102152.25
2022-12-03T04:24:03.813Z,102145.50
2022-12-03T04:26:50.470Z,102145.66
2022-12-03T04:29:19.223Z,102143.72
2022-12-03T04:32:06.754Z,102129.44
2022-12-03T04:34:57.692Z,102148.50
2022-12-03T04:37:26.240Z,102145.03
2022-12-03T04:39:54.796Z,102140.84
2022-12-03T04:42:23.383Z,102143.41
2022-12-03T04:44:52.395Z,102144.44
2022-12-03T04:47:23.112Z,102142.94
2022-12-03T04:49:52.858Z,102148.22
2022-12-03T04:52:22.180Z,102141.44
2022-12-03T04:54:50.717Z,102145.34
2022-12-03T04:57:19.223Z,102132.41
2022-12-03T04:59:47.789Z,102143.84
2022-12-03T05:02:16.383Z,102144.19
2022-12-03T05:04:46.391Z,102148.97
2022-12-03T05:07:14.907Z,102133.66
2022-12-03T05:09:43.894Z,102136.50
2022-12-03T05:12:12.515Z,102130.03
2022-12-03T05:14:41.012Z,102135.16
2022-12-03T05:17:09.564Z,102135.75
2022-12-03T05:19:55.801Z,102125.69
2022-12-03T05:22:25.712Z,102129.13
2022-12-03T05:24:54.446Z,102118.78
2022-12-03T05:27:24.094Z,102121.63
2022-12-03T05:29:52.973Z,102124.94
2022-12-03T05:32:21.847Z,102123.75
2022-12-03T05:34:50.429Z,102129.72
2022-12-03T05:37:18.977Z,102126.16
2022-12-03T05:39:48.845Z,102131.25
2022-12-03T05:42:34.898Z,102125.53
2022-12-03T05:45:03.401Z,102124.63
2022-12-03T05:47:31.918Z,102115.63
2022-12-03T05:50:00.507Z,102118.06
2022-12-03T05:52:29.016Z,102127.03
2022-12-03T05:54:58.875Z,102116.69
2022-12-03T05:57:27.388Z,102123.75
2022-12-03T05:59:55.891Z,102117.13
2022-12-03T06:02:24.643Z,102117.75
2022-12-03T06:04:53.649Z,102112.94
2022-12-03T06:07:22.384Z,102119.41
2022-12-03T06:09:51.088Z,102122.84
2022-12-03T06:12:20.940Z,102117.16
2022-12-03T06:14:49.440Z,102122.56
2022-12-03T06:17:18.038Z,102121.03
2022-12-03T06:19:46.503Z,102121.03
2022-12-03T06:22:15.019Z,102126.03
2022-12-03T06:24:43.729Z,102124.50
2022-12-03T06:27:12.296Z,102121.97
2022-12-03T06:29:42.172Z,102119.25
2022-12-03T06:32:11.031Z,102117.78
2022-12-03T06:34:40.080Z,102121.34
2022-12-03T06:37:08.558Z,102124.66
2022-12-03T06:39:37.072Z,102121.97
2022-12-03T06:42:05.691Z,102126.16
2022-12-03T06:44:34.195Z,102117.28
2022-12-03T06:47:04.140Z,102117.91
2022-12-03T06:49:32.696Z,102118.66
2022-12-03T06:52:01.366Z,102116.25
2022-12-03T06:54:29.878Z,102124.06
2022-12-03T06:56:58.365Z,102121.97
2022-12-03T06:59:27.019Z,102115.94
2022-12-03T07:01:55.530Z,102110.84
2022-12-03T07:04:25.455Z,102122.88
2022-12-03T07:06:53.983Z,102119.25
2022-12-03T07:09:22.481Z,102116.25
2022-12-03T07:11:50.997Z,102121.19
2022-12-03T07:14:19.542Z,102118.38
2022-12-03T07:16:48.155Z,102118.38
2022-12-03T07:19:17.015Z,102118.50
2022-12-03T07:21:46.881Z,102122.41
2022-12-03T07:24:15.432Z,102113.56
2022-12-03T07:26:43.992Z,102120.75
2022-12-03T07:29:13.059Z,102118.81
2022-12-03T07:31:41.689Z,102116.53
2022-12-03T07:34:10.274Z,102114.00
2022-12-03T07:36:38.797Z,102108.44
2022-12-03T07:39:08.708Z,102113.88
2022-12-03T07:41:37.204Z,102115.94
2022-12-03T07:44:12.408Z,102116.69
2022-12-03T07:46:42.996Z,102117.13
2022-12-03T07:49:12.462Z,102117.75
2022-12-03T07:51:41.124Z,102111.75
2022-12-03T07:54:11.015Z,102113.72
2022-12-03T07:56:39.569Z,102110.56
2022-12-03T07:59:08.502Z,102120.00
2022-12-03T08:01:37.063Z,102108.72
2022-12-03T08:04:06.028Z,102112.63
2022-12-03T08:06:34.498Z,102103.66
2022-12-03T08:09:02.984Z,102105.63
2022-12-03T08:11:34.331Z,102105.31
2022-12-03T08:14:08.592Z,102102.44
2022-12-03T08:16:40.433Z,102106.06
2022-12-03T08:19:11.163Z,102103.03
2022-12-03T08:21:40.131Z,102097.66
2022-12-03T08:24:15.821Z,102102.44
2022-12-03T08:26:46.996Z,102098.09
2022-12-03T08:29:17.805Z,102100.63
2022-12-03T08:31:49.284Z,102100.47
2022-12-03T08:34:20.090Z,102095.53
2022-12-03T08:36:50.552Z,102095.25
2022-12-03T08:39:30.836Z,102088.31
2022-12-03T08:42:28.002Z,102097.81
2022-12-03T08:44:57.030Z,102097.31
2022-12-03T08:47:25.900Z,102089.22
2022-12-03T08:49:58.300Z,102093.13
2022-12-03T08:52:32.904Z,102097.78
2022-12-03T08:55:04.102Z,102093.13
2022-12-03T08:57:35.903Z,102097.34
2022-12-03T09:00:16.553Z,102103.06
2022-12-03T09:02:48.816Z,102088.47
2022-12-03T09:05:20.661Z,102091.94
2022-12-03T09:07:49.582Z,102094.03
2022-12-03T09:10:18.356Z,102100.50
2022-12-03T09:12:48.703Z,102085.78
2022-12-03T09:15:17.409Z,102090.88
2022-12-03T09:17:46.021Z,102091.31
2022-12-03T09:20:15.249Z,102091.78
2022-12-03T09:22:43.777Z,102082.19
2022-12-03T09:25:17.763Z,102081.13
2022-12-03T09:27:46.312Z,102079.63
2022-12-03T09:30:17.009Z,102086.09
2022-12-03T09:32:45.524Z,102076.31
2022-12-03T09:35:14.023Z,102080.03
2022-12-03T09:37:42.636Z,102075.25
2022-12-03T09:40:12.554Z,102071.75
2022-12-03T09:42:41.268Z,102067.22
2022-12-03T09:45:13.187Z,102071.13
2022-12-03T09:47:45.963Z,102066.16
2022-12-03T09:50:16.247Z,102070.25
2022-12-03T09:52:45.492Z,102064.84
2022-12-03T09:55:19.487Z,102057.03
2022-12-03T09:57:48.052Z,102060.34
2022-12-03T10:00:19.000Z,102062.47
2022-12-03T10:02:50.590Z,102059.16
2022-12-03T10:05:21.352Z,102047.16
2022-12-03T10:07:51.612Z,102048.97
2022-12-03T10:10:25.222Z,102042.63
2022-12-03T10:12:54.934Z,102047.75
2022-12-03T10:15:24.658Z,102046.22
2022-12-03T10:17:56.069Z,102051.78
2022-12-03T10:20:26.585Z,102042.78
2022-12-03T10:22:55.870Z,102041.75
2022-12-03T10:25:24.694Z,102042.97
2022-12-03T10:27:59.408Z,102030.94
2022-12-03T10:30:29.467Z,102038.78
2022-12-03T10:33:02.759Z,102038.88
2022-12-03T10:35:39.074Z,102037.81
2022-12-03T10:38:09.471Z,102031.25
2022-12-03T10:40:39.661Z,102032.56
2022-12-03T10:43:16.242Z,102034.25
2022-12-03T10:45:45.901Z,102027.50
2022-12-03T10:48:17.875Z,102021.78
2022-12-03T10:50:51.922Z,102019.22
2022-12-03T10:53:22.348Z,102026.13
2022-12-03T10:55:58.762Z,102023.72
2022-12-03T10:58:31.552Z,102026.44
2022-12-03T11:01:03.459Z,102027.34
2022-12-03T11:03:36.960Z,102022.34
2022-12-03T11:06:06.111Z,102020.41
2022-12-03T11:08:36.829Z,102022.47
2022-12-03T11:11:08.534Z,102017.38
2022-12-03T11:13:52.362Z,102011.38
2022-12-03T11:17:12.401Z,102012.00
2022-12-03T11:19:50.245Z,102004.44
2022-12-03T11:22:38.929Z,102006.16
2022-12-03T11:25:56.102Z,102005.84
2022-12-03T11:28:52.796Z,101999.56
2022-12-03T11:31:39.812Z,102001.06
2022-12-03T11:34:47.897Z,101986.91
2022-12-03T11:37:26.012Z,101987.53
2022-12-03T11:40:26.398Z,101985.72
2022-12-03T11:44:04.136Z,101980.97
2022-12-03T11:46:42.795Z,101983.38
2022-12-03T11:49:25.779Z,101980.34
2022-12-03T11:51:54.542Z,101982.41
2022-12-03T11:54:24.784Z,101983.47
2022-12-03T11:56:56.184Z,101972.06
2022-12-03T11:59:24.697Z,101971.63
2022-12-03T12:01:53.192Z,101971.94
2022-12-03T12:04:33.605Z,101980.63
2022-12-03T12:07:03.275Z,101978.81
2022-12-03T12:09:54.309Z,101980.63
2022-12-03T12:12:30.645Z,101978.81
2022-12-03T12:15:00.216Z,101974.03
2022-12-03T12:17:36.404Z,101974.53
2022-12-03T12:20:25.903Z,101977.97
2022-12-03T12:22:55.869Z,101974.94
2022-12-03T12:25:40.692Z,101974.66
2022-12-03T12:28:09.723Z,101977.97
2022-12-03T12:30:38.210Z,101967.75
2022-12-03T12:33:15.779Z,101974.94
2022-12-03T12:35:44.299Z,101964.81
2022-12-03T12:38:16.722Z,101960.63
2022-12-03T12:40:49.347Z,101961.81
2022-12-03T12:43:24.959Z,101961.03
2022-12-03T12:45:55.964Z,101965.25
2022-12-03T12:48:27.598Z,101953.84
2022-12-03T12:51:02.208Z,101947.84
2022-12-03T12:53:33.076Z,101949.28
2022-12-03T12:56:12.369Z,101946.75
2022-12-03T12:58:41.555Z,101952.47
2022-12-03T13:01:18.253Z,101944.94
2022-12-03T13:03:50.643Z,101942.84
2022-12-03T13:06:21.471Z,101939.69
2022-12-03T13:08:51.359Z,101935.34
2022-12-03T13:11:37.014Z,101929.75
2022-12-03T13:14:14.344Z,101922.72
2022-12-03T13:16:43.423Z,101917.47
2022-12-03T13:19:23.063Z,101916.00
2022-12-03T13:21:53.580Z,101930.59
2022-12-03T13:24:33.876Z,101926.50
2022-12-03T13:27:09.808Z,101924.09
2022-12-03T13:29:38.471Z,101923.47
2022-12-03T13:32:13.225Z,101925.53
2022-12-03T13:34:42.742Z,101926.16
2022-12-03T13:37:15.357Z,101922.72
2022-12-03T13:39:47.897Z,101914.75
2022-12-03T13:42:42.302Z,101915.38
2022-12-03T13:45:32.925Z,101916.00
2022-12-03T13:48:04.027Z,101917.22
2022-12-03T13:50:37.193Z,101917.22
2022-12-03T13:53:21.163Z,101912.72
2022-12-03T13:55:51.330Z,101907.75
2022-12-03T13:58:21.346Z,101912.25
2022-12-03T14:00:49.982Z,101911.78
2022-12-03T14:03:18.739Z,101905.03
2022-12-03T14:05:47.283Z,101907.59
2022-12-03T14:08:16.199Z,101909.84
2022-12-03T14:10:44.829Z,101916.00
2022-12-03T14:13:13.419Z,101911.19
2022-12-03T14:15:43.412Z,101919.31
2022-12-03T14:18:11.904Z,101914.97
2022-12-03T14:20:40.466Z,101916.91
2022-12-03T14:23:09.042Z,101915.25
2022-12-03T14:25:37.588Z,101913.72
2022-12-03T14:28:08.678Z,101912.09
2022-12-03T14:30:37.521Z,101903.78
2022-12-03T14:33:07.756Z,101914.91
2022-12-03T14:35:36.326Z,101905.44
2022-12-03T14:38:04.885Z,101910.56
2022-12-03T14:40:33.470Z,101912.97
2022-12-03T14:43:03.327Z,101909.53
2022-12-03T14:45:32.060Z,101900.91
2022-12-03T14:48:00.712Z,101903.59
2022-12-03T14:50:30.607Z,101909.03
2022-12-03T14:52:59.156Z,101915.94
2022-12-03T14:55:27.812Z,101910.09
2022-12-03T14:57:56.487Z,101920.56
2022-12-03T15:00:25.315Z,101918.00
2022-12-03T15:02:53.981Z,101918.94
2022-12-03T15:05:28.323Z,101917.25
2022-12-03T15:07:58.815Z,101918.63
2022-12-03T15:10:27.448Z,101921.03
2022-12-03T15:12:56.096Z,101921.25
2022-12-03T15:15:24.724Z,101920.63
2022-12-03T15:17:53.275Z,101912.97
2022-12-03T15:20:21.796Z,101913.59
2022-12-03T15:22:50.489Z,101923.81
2022-12-03T15:25:24.579Z,101919.88
2022-12-03T15:27:53.099Z,101924.34
2022-12-03T15:30:21.811Z,101920.16
2022-12-03T15:32:50.557Z,101915.06
2022-12-03T15:35:19.232Z,101917.75
2022-12-03T15:37:47.735Z,101911.19
2022-12-03T15:40:16.483Z,101907.28
2022-12-03T15:42:46.427Z,101913.88
2022-12-03T15:45:15.578Z,101912.19
2022-12-03T15:47:44.551Z,101915.06
2022-12-03T15:50:13.559Z,101913.38
2022-12-03T15:52:42.104Z,101909.78
2022-12-03T15:55:11.249Z,101904.69
2022-12-03T15:57:39.812Z,101913.53
2022-12-03T16:00:12.478Z,101915.59
2022-12-03T16:02:41.476Z,101907.19
2022-12-03T16:05:12.696Z,101907.72
2022-12-03T16:07:41.559Z,101904.91
2022-12-03T16:10:11.981Z,101903.25
2022-12-03T16:12:40.489Z,101902.38
2022-12-03T16:15:11.123Z,101909.31
2022-12-03T16:17:39.636Z,101903.78
2022-12-03T16:20:09.326Z,101901.09
2022-12-03T16:22:37.850Z,101904.84
2022-12-03T16:25:07.697Z,101898.81
2022-12-03T16:27:38.004Z,101899.66
2022-12-03T16:30:08.852Z,101901.31
2022-12-03T16:32:39.399Z,101902.38
2022-12-03T16:35:08.328Z,101893.94
2022-12-03T16:37:36.905Z,101900.84
2022-12-03T16:40:06.186Z,101892.41
2022-12-03T16:42:34.691Z,101893.47
2022-12-03T16:45:20.464Z,101892.31
2022-12-03T16:47:51.056Z,101889.66
2022-12-03T16:50:27.556Z,101894.78
2022-12-03T16:52:58.227Z,101895.03
2022-12-03T16:55:26.763Z,101896.81
2022-12-03T16:57:55.669Z,101896.09
2022-12-03T17:00:25.901Z,101896.81
2022-12-03T17:02:55.984Z,101896.19
2022-12-03T17:05:24.589Z,101895.31
2022-12-03T17:07:53.252Z,101901.69
2022-12-03T17:10:21.913Z,101900.16
2022-12-03T17:15:39.234Z,101898.72
2022-12-03T17:18:10.227Z,101895.38
2022-12-03T17:20:39.087Z,101895.25
2022-12-03T17:23:07.663Z,101906.22
2022-12-03T17:25:36.455Z,101900.22
2022-12-03T17:28:04.991Z,101895.47
2022-12-03T17:30:33.510Z,101890.91
2022-12-03T17:33:02.143Z,101891.78
2022-12-03T17:35:32.056Z,101884.25
2022-12-03T17:38:02.540Z,101886.03
2022-12-03T17:40:31.196Z,101888.13
2022-12-03T17:42:59.670Z,101890.69
2022-12-03T17:45:28.205Z,101882.63
2022-12-03T17:47:56.748Z,101882.63
2022-12-03T17:50:25.223Z,101881.84
2022-12-03T17:52:55.191Z,101882.75
2022-12-03T17:55:33.579Z,101883.03
2022-12-03T17:58:06.151Z,101886.59
2022-12-03T18:00:35.126Z,101885.31
2022-12-03T18:03:03.816Z,101889.09
2022-12-03T18:05:32.356Z,101882.19
2022-12-03T18:08:02.442Z,101884.88
2022-12-03T18:10:31.042Z,101885.78
2022-12-03T18:13:01.975Z,101892.97
2022-12-03T18:15:31.282Z,101891.16
2022-12-03T18:17:59.917Z,101886.47
2022-12-03T18:20:28.653Z,101883.03
2022-12-03T18:22:58.811Z,101887.88
2022-12-03T18:25:29.031Z,101880.06
2022-12-03T18:27:57.846Z,101880.06
2022-12-03T18:30:26.538Z,101879.16
2022-12-03T18:32:55.109Z,101877.34
2022-12-03T18:35:23.809Z,101883.63
2022-12-03T18:37:52.836Z,101886.59
2022-12-03T18:40:24.630Z,101885.09
2022-12-03T18:42:54.726Z,101880.00
2022-12-03T18:45:23.267Z,101884.19
2022-12-03T18:47:51.816Z,101880.75
2022-12-03T18:50:20.435Z,101883.56
2022-12-03T18:52:48.925Z,101871.56
2022-12-03T18:55:19.719Z,101878.75
2022-12-03T18:57:48.260Z,101880.53
2022-12-03T19:00:18.905Z,101882.06
2022-12-03T19:03:03.121Z,101878.75
2022-12-03T19:05:32.779Z,101878.88
2022-12-03T19:08:01.601Z,101879.00
2022-12-03T19:10:30.253Z,101879.75
2022-12-03T19:12:58.800Z,101868.53
2022-12-03T19:15:28.781Z,101880.13
2022-12-03T19:17:57.344Z,101886.75
2022-12-03T19:20:25.911Z,101884.94
2022-12-03T19:22:54.420Z,101882.78
2022-12-03T19:25:23.046Z,101882.94
2022-12-03T19:27:55.065Z,101888.69
2022-12-03T19:30:23.765Z,101885.09
2022-12-03T19:32:53.726Z,101882.78
2022-12-03T19:35:22.564Z,101883.84
2022-12-03T19:37:51.383Z,101882.94
2022-12-03T19:40:20.063Z,101884.47
2022-12-03T19:42:48.623Z,101880.25
2022-12-03T19:45:17.337Z,101885.34
2022-12-03T19:47:45.826Z,101883.56
2022-12-03T19:50:22.713Z,101888.19
2022-12-03T19:52:51.968Z,101892.84
2022-12-03T19:55:20.714Z,101887.97
2022-12-03T19:57:49.669Z,101886.19
2022-12-03T20:00:18.635Z,101889.50
2022-12-03T20:02:50.134Z,101888.75
2022-12-03T20:05:20.206Z,101883.50
2022-12-03T20:07:48.809Z,101881.06
2022-12-03T20:10:17.660Z,101893.84
2022-12-03T20:12:46.500Z,101887.09
2022-12-03T20:15:15.416Z,101875.19
2022-12-03T20:17:44.151Z,101874.47
2022-12-03T20:20:13.363Z,101876.25
2022-12-03T20:22:43.548Z,101872.31
2022-12-03T20:25:12.255Z,101876.25
2022-12-03T20:27:40.826Z,101874.72
2022-12-03T20:30:10.357Z,101869.59
2022-12-03T20:32:43.725Z,101877.28
2022-12-03T20:35:14.007Z,101879.06
2022-12-03T20:37:43.938Z,101883.16
2022-12-03T20:40:13.033Z,101883.78
2022-12-03T20:42:41.531Z,101886.66
2022-12-03T20:45:11.203Z,101893.09
2022-12-03T20:47:39.754Z,101899.13
2022-12-03T20:50:09.172Z,101891.59
2022-12-03T20:52:37.880Z,101887.50
2022-12-03T20:55:08.498Z,101890.06
2022-12-03T20:57:37.450Z,101889.28
2022-12-03T21:00:07.256Z,101882.69
2022-12-03T21:02:35.824Z,101899.41
2022-12-03T21:05:04.620Z,101886.19
2022-12-03T21:07:33.351Z,101889.19
2022-12-03T21:10:01.961Z,101885.09
2022-12-03T21:12:31.891Z,101885.97
2022-12-03T21:15:00.448Z,101887.66
2022-12-03T21:17:28.995Z,101886.72
2022-12-03T21:19:57.739Z,101885.50
2022-12-03T21:22:26.396Z,101877.03
2022-12-03T21:24:55.058Z,101889.09
2022-12-03T21:27:23.596Z,101882.53
2022-12-03T21:29:54.233Z,101880.59
2022-12-03T21:32:23.034Z,101868.06
2022-12-03T21:34:51.594Z,101868.34
2022-12-03T21:37:20.066Z,101873.63
2022-12-03T21:39:48.606Z,101869.13
2022-12-03T21:42:34.749Z,101868.34
2022-12-03T21:45:08.280Z,101869.88
2022-12-03T21:47:37.652Z,101860.28
2022-12-03T21:50:08.255Z,101860.91
2022-12-03T21:52:36.982Z,101862.41
2022-12-03T21:55:06.360Z,101860.38
2022-12-03T21:57:36.707Z,101858.69
2022-12-03T22:00:08.855Z,101857.81
2022-12-03T22:02:39.577Z,101867.41
2022-12-03T22:05:09.138Z,101864.97
2022-12-03T22:07:38.532Z,101876.25
2022-12-03T22:10:11.995Z,101868.72
2022-12-03T22:12:42.110Z,101866.03
2022-12-03T22:15:18.382Z,101867.03
2022-12-03T22:17:47.865Z,101856.06
2022-12-03T22:20:16.867Z,101855.28
2022-12-03T22:22:45.376Z,101854.53
2022-12-03T22:25:13.882Z,101854.94
2022-12-03T22:27:42.359Z,101855.09
2022-12-03T22:30:12.888Z,101860.81
2022-12-03T22:32:41.482Z,101847.91
2022-12-03T22:35:10.409Z,101850.06
2022-12-03T22:37:38.915Z,101854.53
2022-12-03T22:40:08.425Z,101853.00
2022-12-03T22:42:37.002Z,101851.09
2022-12-03T22:45:06.371Z,101854.53
2022-12-03T22:47:36.264Z,101854.81
2022-12-03T22:50:05.007Z,101842.16
2022-12-03T22:52:33.627Z,101842.56
2022-12-03T22:55:02.112Z,101841.81
2022-12-03T22:57:30.588Z,101843.31
2022-12-03T22:59:59.142Z,101844.56
2022-12-03T23:02:27.891Z,101829.22
2022-12-03T23:04:57.985Z,101835.41
2022-12-03T23:07:26.532Z,101834.34
2022-12-03T23:09:55.565Z,101838.84
2022-12-03T23:12:24.219Z,101834.78
2022-12-03T23:14:54.210Z,101830.06
2022-12-03T23:17:22.742Z,101833.38
2022-12-03T23:19:51.577Z,101830.53
2022-12-03T23:22:21.532Z,101834.88
2022-12-03T23:24:50.042Z,101828.25
2022-12-03T23:27:18.576Z,101829.03
2022-12-03T23:29:47.184Z,101829.50
2022-12-03T23:32:15.692Z,101835.41
2022-12-03T23:34:44.446Z,101820.06
2022-12-03T23:37:12.991Z,101820.16
2022-12-03T23:39:42.914Z,101816.88
2022-12-03T23:42:11.498Z,101816.72
2022-12-03T23:44:40.040Z,101810.84
2022-12-03T23:47:08.625Z,101815.69
2022-12-03T23:49:37.402Z,101809.81
2022-12-03T23:52:05.932Z,101813.41
2022-12-03T23:54:34.468Z,101809.19
2022-12-03T23:57:04.703Z,101806.75
2022-12-03T23:59:33.368Z,101803.31
